Time;durP1;ratioP1;P1;durP2;ratioP2;P2;SDS_P1;SDS_P2;PMS_P1;PMS_P2;Temp;Humidity;BMP_temperature;BMP_pressure;BME280_temperature;BME280_humidity;BME280_pressure;Samples;Min_cycle;Max_cycle;Signal;HPM_P1;HPM_P2
2021/05/14 00:01:33;;;;;;;;;;;20.00;56.10;;;;;;5018562;28;20119;-53
2021/05/14 00:03:59;;;;;;;;;;;20.00;56.10;;;;;;5042785;28;20681;-55
2021/05/14 00:06:24;;;;;;;;;;;20.00;56.00;;;;;;5042774;28;19920;-55
2021/05/14 00:08:49;;;;;;;;;;;20.00;56.00;;;;;;5043622;28;19917;-54
2021/05/14 00:11:15;;;;;;;;;;;20.00;56.00;;;;;;5024691;28;20694;-58
2021/05/14 00:13:40;;;;;;;;;;;20.00;56.00;;;;;;5043687;28;19923;-57
2021/05/14 00:16:08;;;;;;;;;;;20.00;56.00;;;;;;5043041;28;19916;-58
2021/05/14 00:18:33;;;;;;;;;;;20.00;56.00;;;;;;5043153;28;20549;-52
2021/05/14 00:20:58;;;;;;;;;;;20.00;56.00;;;;;;5041525;28;19924;-58
2021/05/14 00:23:24;;;;;;;;;;;19.90;56.00;;;;;;5042786;28;19939;-57
2021/05/14 00:25:49;;;;;;;;;;;20.00;55.90;;;;;;5025136;28;19921;-55
2021/05/14 00:28:15;;;;;;;;;;;20.00;55.90;;;;;;5042274;28;19927;-57
2021/05/14 00:30:40;;;;;;;;;;;20.00;55.90;;;;;;5042607;28;19917;-57
2021/05/14 00:33:06;;;;;;;;;;;19.90;55.80;;;;;;5043034;28;19920;-54
2021/05/14 00:35:31;;;;;;;;;;;19.90;55.80;;;;;;5041441;28;19925;-58
2021/05/14 00:37:57;;;;;;;;;;;19.90;55.80;;;;;;5041615;28;19959;-56
2021/05/14 00:40:22;;;;;;;;;;;19.90;55.80;;;;;;5041093;28;20385;-56
2021/05/14 00:42:48;;;;;;;;;;;19.90;55.80;;;;;;5043093;28;19924;-57
2021/05/14 00:45:13;;;;;;;;;;;19.90;55.80;;;;;;5024261;28;19928;-57
2021/05/14 00:47:39;;;;;;;;;;;19.90;55.80;;;;;;5035966;28;19917;-58
2021/05/14 00:50:05;;;;;;;;;;;19.90;55.80;;;;;;5040799;28;19917;-57
2021/05/14 00:52:30;;;;;;;;;;;19.90;55.70;;;;;;5038227;28;19939;-59
2021/05/14 00:54:56;;;;;;;;;;;19.90;55.80;;;;;;5043519;28;20378;-60
2021/05/14 00:57:22;;;;;;;;;;;19.90;55.70;;;;;;5007783;28;19931;-55
2021/05/14 00:59:47;;;;;;;;;;;19.90;55.70;;;;;;5023602;28;19939;-56
2021/05/14 01:02:13;;;;;;;;;;;19.90;55.70;;;;;;5041888;28;20410;-54
2021/05/14 01:04:38;;;;;;;;;;;19.90;55.70;;;;;;5042098;28;19916;-57
2021/05/14 01:07:04;;;;;;;;;;;19.90;55.70;;;;;;5042282;28;19916;-55
2021/05/14 01:09:29;;;;;;;;;;;19.90;55.60;;;;;;5023063;28;19947;-56
2021/05/14 01:11:55;;;;;;;;;;;19.90;55.60;;;;;;5041556;28;19932;-54
2021/05/14 01:14:20;;;;;;;;;;;19.90;55.60;;;;;;5041190;28;20334;-57
2021/05/14 01:16:46;;;;;;;;;;;19.90;55.60;;;;;;5041698;28;20374;-57
2021/05/14 01:19:11;;;;;;;;;;;19.80;55.50;;;;;;5040621;28;19940;-56
2021/05/14 01:21:37;;;;;;;;;;;19.90;55.60;;;;;;5042660;28;19918;-56
2021/05/14 01:24:03;;;;;;;;;;;19.80;55.50;;;;;;5041146;28;19917;-54
2021/05/14 01:26:28;;;;;;;;;;;19.90;55.50;;;;;;5040845;28;19935;-53
2021/05/14 01:28:54;;;;;;;;;;;19.80;55.50;;;;;;5023620;28;20504;-56
2021/05/14 01:31:19;;;;;;;;;;;19.80;55.50;;;;;;5023903;28;19932;-56
2021/05/14 01:33:45;;;;;;;;;;;19.80;55.40;;;;;;5052223;23;19928;-72
2021/05/14 01:36:10;;;;;;;;;;;19.80;55.40;;;;;;5038058;28;19917;-72
2021/05/14 01:38:36;;;;;;;;;;;19.80;55.50;;;;;;5043715;28;19924;-71
2021/05/14 01:41:01;;;;;;;;;;;19.80;55.40;;;;;;5043370;28;19923;-72
2021/05/14 01:43:27;;;;;;;;;;;19.80;55.50;;;;;;5024601;28;19944;-72
2021/05/14 01:45:52;;;;;;;;;;;19.80;55.50;;;;;;5043253;28;20305;-71
2021/05/14 01:48:18;;;;;;;;;;;19.80;55.50;;;;;;5024861;28;19954;-70
2021/05/14 01:50:43;;;;;;;;;;;19.80;55.50;;;;;;5042895;28;20382;-72
2021/05/14 01:53:09;;;;;;;;;;;19.80;55.40;;;;;;5017983;28;20425;-70
2021/05/14 01:55:34;;;;;;;;;;;19.80;55.40;;;;;;5030964;28;19967;-72
2021/05/14 01:58:00;;;;;;;;;;;19.80;55.40;;;;;;5024459;28;19925;-72
2021/05/14 02:00:25;;;;;;;;;;;19.80;55.40;;;;;;5041912;28;19923;-70
2021/05/14 02:02:51;;;;;;;;;;;19.70;55.40;;;;;;5043749;28;20366;-71
2021/05/14 02:05:16;;;;;;;;;;;19.70;55.40;;;;;;5043098;28;19948;-71
2021/05/14 02:07:42;;;;;;;;;;;19.80;55.40;;;;;;5043425;28;19917;-71
2021/05/14 02:10:07;;;;;;;;;;;19.80;55.40;;;;;;5034882;28;19920;-70
2021/05/14 02:12:33;;;;;;;;;;;19.80;55.40;;;;;;5025518;28;20500;-72
2021/05/14 02:14:58;;;;;;;;;;;19.70;55.30;;;;;;5025672;28;20007;-73
2021/05/14 02:17:24;;;;;;;;;;;19.70;55.30;;;;;;5042735;28;19987;-71
2021/05/14 02:19:49;;;;;;;;;;;19.70;55.30;;;;;;5025294;28;19952;-71
2021/05/14 02:22:15;;;;;;;;;;;19.70;55.30;;;;;;5025480;28;19917;-72
2021/05/14 02:24:40;;;;;;;;;;;19.70;55.30;;;;;;5024795;28;19917;-72
2021/05/14 02:27:06;;;;;;;;;;;19.70;55.30;;;;;;5043348;28;20420;-72
2021/05/14 02:29:34;;;;;;;;;;;19.70;55.30;;;;;;5041525;28;20565;-72
2021/05/14 02:32:03;;;;;;;;;;;19.70;55.30;;;;;;5043479;28;21313;-72
2021/05/14 02:34:28;;;;;;;;;;;19.70;55.30;;;;;;5042059;28;19994;-74
2021/05/14 02:36:54;;;;;;;;;;;19.70;55.30;;;;;;5042282;28;20417;-72
2021/05/14 02:39:19;;;;;;;;;;;19.70;55.20;;;;;;5041676;28;19931;-75
2021/05/14 02:41:45;;;;;;;;;;;19.70;55.20;;;;;;5025226;28;19959;-71
2021/05/14 02:44:10;;;;;;;;;;;19.70;55.30;;;;;;5042234;28;19939;-73
2021/05/14 02:46:36;;;;;;;;;;;19.70;55.20;;;;;;5043296;28;19927;-72
2021/05/14 02:49:01;;;;;;;;;;;19.70;55.20;;;;;;5042427;28;19923;-73
2021/05/14 02:51:27;;;;;;;;;;;19.70;55.60;;;;;;5042112;28;20679;-72
2021/05/14 02:53:52;;;;;;;;;;;19.70;55.20;;;;;;5008065;28;19935;-72
2021/05/14 02:56:18;;;;;;;;;;;19.70;55.20;;;;;;5024553;28;20598;-72
2021/05/14 02:58:44;;;;;;;;;;;19.70;55.20;;;;;;5024507;28;19921;-73
2021/05/14 03:01:09;;;;;;;;;;;19.60;55.10;;;;;;5025014;28;19939;-70
2021/05/14 03:03:35;;;;;;;;;;;19.70;55.20;;;;;;5043180;28;20282;-72
2021/05/14 03:06:00;;;;;;;;;;;19.60;55.20;;;;;;5024145;28;20381;-71
2021/05/14 03:08:25;;;;;;;;;;;19.60;55.10;;;;;;5043428;28;20036;-72
2021/05/14 03:10:51;;;;;;;;;;;19.60;55.10;;;;;;5045144;28;19971;-73
2021/05/14 03:13:16;;;;;;;;;;;19.70;55.20;;;;;;5047845;28;19933;-73
2021/05/14 03:15:42;;;;;;;;;;;19.60;55.10;;;;;;5048117;28;20394;-72
2021/05/14 03:18:07;;;;;;;;;;;19.60;55.10;;;;;;5044266;28;19924;-72
2021/05/14 03:20:33;;;;;;;;;;;19.60;55.10;;;;;;5050146;28;19924;-71
2021/05/14 03:22:58;;;;;;;;;;;19.60;55.10;;;;;;5032064;28;19917;-72
2021/05/14 03:25:24;;;;;;;;;;;19.60;55.10;;;;;;5052175;28;19917;-72
2021/05/14 03:27:49;;;;;;;;;;;19.60;55.10;;;;;;5035208;28;19917;-71
2021/05/14 03:30:15;;;;;;;;;;;19.60;55.70;;;;;;5046083;28;19925;-72
2021/05/14 03:32:40;;;;;;;;;;;19.60;55.10;;;;;;5045002;28;20384;-72
2021/05/14 03:35:06;;;;;;;;;;;19.60;55.10;;;;;;5028874;28;20404;-72
2021/05/14 03:37:31;;;;;;;;;;;19.60;55.10;;;;;;5047677;28;19921;-70
2021/05/14 03:40:02;;;;;;;;;;;19.60;55.10;;;;;;5025825;28;19925;-72
2021/05/14 03:42:28;;;;;;;;;;;19.50;55.00;;;;;;5048651;28;19923;-70
2021/05/14 03:44:54;;;;;;;;;;;19.50;55.00;;;;;;5038814;28;20429;-71
2021/05/14 03:47:23;;;;;;;;;;;19.60;55.10;;;;;;5049139;28;21757;-70
2021/05/14 03:49:48;;;;;;;;;;;19.60;55.10;;;;;;5060839;28;20427;-70
2021/05/14 03:52:13;;;;;;;;;;;19.60;55.10;;;;;;5048659;28;19928;-72
2021/05/14 03:54:39;;;;;;;;;;;19.50;55.00;;;;;;5031450;28;20389;-69
2021/05/14 03:57:05;;;;;;;;;;;19.50;55.00;;;;;;5044034;28;20012;-69
2021/05/14 03:59:30;;;;;;;;;;;19.60;55.10;;;;;;5030239;28;19990;-72
2021/05/14 04:01:56;;;;;;;;;;;19.50;55.00;;;;;;5048328;28;19923;-71
2021/05/14 04:04:23;;;;;;;;;;;19.60;55.10;;;;;;5049629;28;19916;-70
2021/05/14 04:06:48;;;;;;;;;;;19.50;55.00;;;;;;5030327;28;19921;-71
2021/05/14 04:09:18;;;;;;;;;;;19.50;55.10;;;;;;5048756;28;19957;-72
2021/05/14 04:14:30;;;;;;;;;;;19.50;55.00;;;;;;5050402;28;19916;-71
2021/05/14 04:16:56;;;;;;;;;;;19.50;55.00;;;;;;5050009;28;20336;-72
2021/05/14 04:19:24;;;;;;;;;;;19.50;55.00;;;;;;5049040;28;19917;-72
2021/05/14 04:21:51;;;;;;;;;;;19.50;55.00;;;;;;5048613;28;20011;-71
2021/05/14 04:24:16;;;;;;;;;;;19.50;55.00;;;;;;5047970;28;19928;-72
2021/05/14 04:26:41;;;;;;;;;;;19.50;55.70;;;;;;5044799;28;19921;-72
2021/05/14 04:29:07;;;;;;;;;;;19.50;55.00;;;;;;5045491;28;19923;-71
2021/05/14 04:31:32;;;;;;;;;;;19.50;55.00;;;;;;5027479;28;19935;-73
2021/05/14 04:33:58;;;;;;;;;;;19.50;55.00;;;;;;5023814;28;19920;-71
2021/05/14 04:36:23;;;;;;;;;;;19.50;55.00;;;;;;5049061;28;19921;-70
2021/05/14 04:38:49;;;;;;;;;;;19.50;55.00;;;;;;5048685;28;20389;-72
2021/05/14 04:41:14;;;;;;;;;;;19.50;55.00;;;;;;5027245;28;19917;-72
2021/05/14 04:43:40;;;;;;;;;;;19.50;55.00;;;;;;5048123;28;19920;-72
2021/05/14 04:46:05;;;;;;;;;;;19.50;55.00;;;;;;5048367;28;19927;-71
2021/05/14 04:48:31;;;;;;;;;;;19.50;55.00;;;;;;5052919;28;19945;-70
2021/05/14 04:50:56;;;;;;;;;;;19.50;55.10;;;;;;5040731;28;20360;-72
2021/05/14 04:53:28;;;;;;;;;;;19.50;55.00;;;;;;5042619;28;19913;-70
2021/05/14 04:55:53;;;;;;;;;;;19.50;55.00;;;;;;5045870;28;19921;-71
2021/05/14 04:58:19;;;;;;;;;;;19.40;55.00;;;;;;5061463;28;19964;-69
2021/05/14 05:00:44;;;;;;;;;;;19.40;55.00;;;;;;5059363;28;19917;-71
2021/05/14 05:03:10;;;;;;;;;;;19.40;55.00;;;;;;5051749;28;19917;-70
2021/05/14 05:05:35;;;;;;;;;;;19.40;55.00;;;;;;5052308;28;19932;-70
2021/05/14 05:08:01;;;;;;;;;;;19.40;55.00;;;;;;5050046;28;23710;-70
2021/05/14 05:10:26;;;;;;;;;;;19.40;55.00;;;;;;5051691;28;20384;-70
2021/05/14 05:12:51;;;;;;;;;;;19.40;55.00;;;;;;5050961;28;19917;-72
2021/05/14 05:15:17;;;;;;;;;;;19.40;55.00;;;;;;5028266;28;19929;-72
2021/05/14 05:17:43;;;;;;;;;;;19.40;55.00;;;;;;5046640;28;19924;-72
2021/05/14 05:20:08;;;;;;;;;;;19.40;55.00;;;;;;5052553;28;19921;-71
2021/05/14 05:22:34;;;;;;;;;;;19.40;55.00;;;;;;5036198;28;19913;-72
2021/05/14 05:24:59;;;;;;;;;;;19.40;55.00;;;;;;5053514;28;19925;-71
2021/05/14 05:27:25;;;;;;;;;;;19.40;55.00;;;;;;5063664;28;19921;-70
2021/05/14 05:29:50;;;;;;;;;;;19.40;55.00;;;;;;5047541;28;19916;-71
2021/05/14 05:32:16;;;;;;;;;;;19.40;55.00;;;;;;5058203;28;20026;-70
2021/05/14 05:34:41;;;;;;;;;;;19.40;55.00;;;;;;5050417;28;19978;-72
2021/05/14 05:37:07;;;;;;;;;;;19.40;55.00;;;;;;5051893;23;19931;-52
2021/05/14 05:39:32;;;;;;;;;;;19.40;55.00;;;;;;4999280;28;19932;-52
2021/05/14 05:41:58;;;;;;;;;;;19.40;55.00;;;;;;5002062;28;19917;-52
2021/05/14 05:44:23;;;;;;;;;;;19.40;55.00;;;;;;5006957;28;20418;-54
2021/05/14 05:46:49;;;;;;;;;;;19.40;55.00;;;;;;4993514;28;19927;-55
2021/05/14 05:49:14;;;;;;;;;;;19.40;55.00;;;;;;5006839;28;19987;-53
2021/05/14 05:51:40;;;;;;;;;;;19.40;55.00;;;;;;5004980;28;19944;-55
2021/05/14 05:54:05;;;;;;;;;;;19.40;55.00;;;;;;5007093;28;19955;-55
2021/05/14 05:56:31;;;;;;;;;;;19.40;55.00;;;;;;5004187;28;19929;-52
2021/05/14 05:58:56;;;;;;;;;;;19.40;54.90;;;;;;5006816;28;19925;-53
2021/05/14 06:01:22;;;;;;;;;;;19.40;55.00;;;;;;4991221;28;19947;-52
2021/05/14 06:03:48;;;;;;;;;;;19.40;54.90;;;;;;5006971;28;19952;-54
2021/05/14 06:06:14;;;;;;;;;;;19.30;54.90;;;;;;5001355;28;19921;-52
2021/05/14 06:08:39;;;;;;;;;;;19.40;55.00;;;;;;5002228;28;20536;-54
2021/05/14 06:11:04;;;;;;;;;;;19.40;55.00;;;;;;5005257;28;20275;-55
2021/05/14 06:13:31;;;;;;;;;;;19.30;54.80;;;;;;5014428;28;19917;-52
2021/05/14 06:15:59;;;;;;;;;;;19.40;54.90;;;;;;5001140;28;19917;-54
2021/05/14 06:18:25;;;;;;;;;;;19.30;54.80;;;;;;5009364;28;19932;-55
2021/05/14 06:20:51;;;;;;;;;;;19.40;54.90;;;;;;5006195;28;19922;-53
2021/05/14 06:23:17;;;;;;;;;;;19.30;54.80;;;;;;5010385;28;19930;-56
2021/05/14 06:25:42;;;;;;;;;;;19.30;54.90;;;;;;5008944;28;19921;-54
2021/05/14 06:28:08;;;;;;;;;;;19.30;54.90;;;;;;5001632;28;19917;-54
2021/05/14 06:30:34;;;;;;;;;;;19.30;54.90;;;;;;4988138;28;20473;-55
2021/05/14 06:32:59;;;;;;;;;;;19.30;54.90;;;;;;5007760;28;19928;-52
2021/05/14 06:35:25;;;;;;;;;;;19.30;55.10;;;;;;4987557;28;19929;-54
2021/05/14 06:37:51;;;;;;;;;;;19.30;55.10;;;;;;5002964;28;20413;-54
2021/05/14 06:40:16;;;;;;;;;;;19.30;55.20;;;;;;5002740;28;19924;-55
2021/05/14 06:42:42;;;;;;;;;;;19.30;55.50;;;;;;5008269;28;19917;-53
2021/05/14 06:45:07;;;;;;;;;;;19.30;55.60;;;;;;5013945;28;19922;-52
2021/05/14 06:47:33;;;;;;;;;;;19.30;55.50;;;;;;5013207;28;20171;-54
2021/05/14 06:50:03;;;;;;;;;;;19.30;55.60;;;;;;5004237;28;20502;-52
2021/05/14 06:52:28;;;;;;;;;;;19.30;55.70;;;;;;5007071;28;20016;-53
2021/05/14 06:54:54;;;;;;;;;;;19.30;55.70;;;;;;5009080;28;20021;-52
2021/05/14 06:57:19;;;;;;;;;;;19.30;56.00;;;;;;5009663;28;20514;-52
2021/05/14 06:59:45;;;;;;;;;;;19.30;55.90;;;;;;5007139;28;19918;-52
2021/05/14 07:02:10;;;;;;;;;;;19.30;55.90;;;;;;5006315;28;19930;-53
2021/05/14 07:04:36;;;;;;;;;;;19.30;55.80;;;;;;5009761;28;19924;-55
2021/05/14 07:07:01;;;;;;;;;;;19.30;55.80;;;;;;5009566;28;19976;-53
2021/05/14 07:09:26;;;;;;;;;;;19.30;55.90;;;;;;5013531;28;19917;-52
2021/05/14 07:11:52;;;;;;;;;;;19.30;55.80;;;;;;5007453;28;19922;-52
2021/05/14 07:14:17;;;;;;;;;;;19.30;55.80;;;;;;5007390;28;20325;-56
2021/05/14 07:16:43;;;;;;;;;;;19.30;55.80;;;;;;5010408;28;19921;-60
2021/05/14 07:19:13;;;;;;;;;;;19.30;55.80;;;;;;5017384;28;19925;-48
2021/05/14 07:21:38;;;;;;;;;;;19.30;55.80;;;;;;5020392;28;19929;-50
2021/05/14 07:24:04;;;;;;;;;;;19.30;55.80;;;;;;5021924;28;19992;-52
2021/05/14 07:26:30;;;;;;;;;;;19.30;55.80;;;;;;5028573;28;20317;-54
2021/05/14 07:28:57;;;;;;;;;;;19.30;55.80;;;;;;5005505;28;19922;-53
2021/05/14 07:31:24;;;;;;;;;;;19.30;55.80;;;;;;5014760;28;20490;-59
2021/05/14 07:33:49;;;;;;;;;;;19.30;55.70;;;;;;5007226;28;19917;-51
2021/05/14 07:36:15;;;;;;;;;;;19.30;55.70;;;;;;5006073;28;19929;-59
2021/05/14 07:38:40;;;;;;;;;;;19.30;55.70;;;;;;5020520;28;20398;-50
2021/05/14 07:41:08;;;;;;;;;;;19.30;55.70;;;;;;5030046;28;19917;-51
2021/05/14 07:43:33;;;;;;;;;;;19.30;55.70;;;;;;5012330;28;20075;-51
2021/05/14 07:45:59;;;;;;;;;;;19.30;55.70;;;;;;5011160;28;20009;-50
2021/05/14 07:48:24;;;;;;;;;;;19.30;55.70;;;;;;5006192;28;19989;-50
2021/05/14 07:50:50;;;;;;;;;;;19.30;55.60;;;;;;5025017;28;19952;-48
2021/05/14 07:53:15;;;;;;;;;;;19.30;55.60;;;;;;5034980;28;19981;-49
2021/05/14 07:55:41;;;;;;;;;;;19.20;55.50;;;;;;5043905;28;19996;-52
2021/05/14 07:58:06;;;;;;;;;;;19.20;55.50;;;;;;5016430;28;20395;-50
2021/05/14 08:00:31;;;;;;;;;;;19.20;55.50;;;;;;4988503;28;19942;-52
2021/05/14 08:02:57;;;;;;;;;;;19.20;55.40;;;;;;5006435;28;19925;-49
2021/05/14 08:05:22;;;;;;;;;;;19.20;55.40;;;;;;5015247;28;19925;-53
2021/05/14 08:08:11;;;;;;;;;;;19.20;55.40;;;;;;5031145;28;20004;-56
2021/05/14 08:10:37;;;;;;;;;;;19.30;55.70;;;;;;5002411;28;19917;-55
2021/05/14 08:13:02;;;;;;;;;;;19.30;56.80;;;;;;5009806;28;19928;-52
2021/05/14 08:15:28;;;;;;;;;;;19.30;56.60;;;;;;5010689;28;19926;-56
2021/05/14 08:17:53;;;;;;;;;;;19.30;56.50;;;;;;5013355;28;20008;-53
2021/05/14 08:20:19;;;;;;;;;;;19.30;56.40;;;;;;5001327;28;20020;-53
2021/05/14 08:22:44;;;;;;;;;;;19.30;56.60;;;;;;5029680;28;20344;-58
2021/05/14 08:25:10;;;;;;;;;;;19.30;56.60;;;;;;5020904;28;19944;-54
2021/05/14 08:27:36;;;;;;;;;;;19.20;56.50;;;;;;5018826;28;19926;-52
2021/05/14 08:30:02;;;;;;;;;;;19.20;56.40;;;;;;5020282;28;20529;-52
2021/05/14 08:32:27;;;;;;;;;;;19.20;56.50;;;;;;5022609;28;20016;-52
2021/05/14 08:34:53;;;;;;;;;;;19.20;56.50;;;;;;5018265;28;19932;-51
2021/05/14 08:37:18;;;;;;;;;;;19.30;56.50;;;;;;5012449;28;20457;-54
2021/05/14 08:39:44;;;;;;;;;;;19.20;56.40;;;;;;5015615;28;19951;-51
2021/05/14 08:42:09;;;;;;;;;;;19.20;57.00;;;;;;5013686;28;19956;-51
2021/05/14 08:44:35;;;;;;;;;;;19.20;56.30;;;;;;5000455;28;19944;-52
2021/05/14 08:47:00;;;;;;;;;;;19.20;56.30;;;;;;5011959;28;19922;-54
2021/05/14 08:49:26;;;;;;;;;;;19.20;56.30;;;;;;5001961;28;19921;-55
2021/05/14 08:51:52;;;;;;;;;;;19.30;56.30;;;;;;5015104;28;20370;-54
2021/05/14 08:54:18;;;;;;;;;;;19.20;56.70;;;;;;4991528;28;19933;-55
2021/05/14 08:56:43;;;;;;;;;;;19.20;57.60;;;;;;4989613;28;19922;-49
2021/05/14 08:59:09;;;;;;;;;;;19.20;57.70;;;;;;5006622;28;19925;-60
2021/05/14 09:01:37;;;;;;;;;;;19.20;58.30;;;;;;5010686;28;20566;-58
2021/05/14 09:04:07;;;;;;;;;;;19.20;58.30;;;;;;5002659;28;20003;-52
2021/05/14 09:06:33;;;;;;;;;;;19.20;59.00;;;;;;5007993;28;19932;-56
2021/05/14 09:09:00;;;;;;;;;;;19.10;59.20;;;;;;5006900;28;19960;-55
2021/05/14 09:11:34;;;;;;;;;;;19.10;59.50;;;;;;5003956;28;20456;-56
2021/05/14 09:14:00;;;;;;;;;;;19.10;59.60;;;;;;5014258;28;19983;-58
2021/05/14 09:16:41;;;;;;;;;;;19.10;59.90;;;;;;5008203;28;20377;-56
2021/05/14 09:19:07;;;;;;;;;;;19.10;60.10;;;;;;5004961;28;19917;-53
2021/05/14 09:21:32;;;;;;;;;;;19.10;60.10;;;;;;5004678;28;19939;-51
2021/05/14 09:23:58;;;;;;;;;;;19.10;60.10;;;;;;5007092;28;19932;-58
2021/05/14 09:26:27;;;;;;;;;;;19.10;60.10;;;;;;5005812;28;19921;-60
2021/05/14 09:28:52;;;;;;;;;;;19.10;60.10;;;;;;5003374;28;20599;-56
2021/05/14 09:31:18;;;;;;;;;;;19.10;60.20;;;;;;5001154;28;19921;-51
2021/05/14 09:33:47;;;;;;;;;;;19.20;60.20;;;;;;5007366;28;20299;-52
2021/05/14 09:36:18;;;;;;;;;;;19.10;60.00;;;;;;5002732;28;19944;-51
2021/05/14 09:38:46;;;;;;;;;;;19.20;60.10;;;;;;5006449;28;20016;-58
2021/05/14 09:41:26;;;;;;;;;;;19.20;60.10;;;;;;5004269;28;19948;-53
2021/05/14 09:43:55;;;;;;;;;;;19.20;59.90;;;;;;5011339;28;19918;-50
2021/05/14 09:46:33;;;;;;;;;;;19.20;59.70;;;;;;5016307;28;19995;-59
2021/05/14 09:48:59;;;;;;;;;;;19.20;59.30;;;;;;5016101;28;19921;-51
2021/05/14 09:51:24;;;;;;;;;;;19.30;59.30;;;;;;5002487;28;19917;-52
2021/05/14 09:53:50;;;;;;;;;;;19.30;59.30;;;;;;5002278;28;20549;-52
2021/05/14 09:56:26;;;;;;;;;;;19.20;59.10;;;;;;5010264;28;20280;-61
2021/05/14 09:58:52;;;;;;;;;;;19.30;59.10;;;;;;5012065;28;19978;-56
2021/05/14 10:01:18;;;;;;;;;;;19.30;58.90;;;;;;5010868;28;20291;-54
2021/05/14 10:03:43;;;;;;;;;;;19.30;58.90;;;;;;5008691;28;19925;-55
2021/05/14 10:06:09;;;;;;;;;;;19.40;58.90;;;;;;4991078;28;19956;-54
2021/05/14 10:08:35;;;;;;;;;;;19.40;59.00;;;;;;4993552;28;19918;-53
2021/05/14 10:11:01;;;;;;;;;;;19.40;59.40;;;;;;4991037;28;19914;-54
2021/05/14 10:13:27;;;;;;;;;;;19.40;59.70;;;;;;4989473;28;19922;-51
2021/05/14 10:15:53;;;;;;;;;;;19.40;60.30;;;;;;4993789;28;20400;-51
2021/05/14 10:18:19;;;;;;;;;;;19.40;60.20;;;;;;4990423;28;19917;-55
2021/05/14 10:20:45;;;;;;;;;;;19.50;59.90;;;;;;4994059;28;19921;-52
2021/05/14 10:23:12;;;;;;;;;;;19.50;59.60;;;;;;4985750;28;19924;-51
2021/05/14 10:25:37;;;;;;;;;;;19.50;59.30;;;;;;4991686;28;19921;-51
2021/05/14 10:28:10;;;;;;;;;;;19.50;59.00;;;;;;5002713;28;19922;-54
2021/05/14 10:30:35;;;;;;;;;;;19.50;58.60;;;;;;5007559;28;20618;-53
2021/05/14 10:33:02;;;;;;;;;;;19.60;58.50;;;;;;5005717;28;19921;-55
2021/05/14 10:35:30;;;;;;;;;;;19.50;58.50;;;;;;5005236;28;19925;-54
2021/05/14 10:38:01;;;;;;;;;;;19.50;59.30;;;;;;4984245;28;19922;-51
2021/05/14 10:40:33;;;;;;;;;;;19.50;59.40;;;;;;5002214;28;19925;-55
2021/05/14 10:43:05;;;;;;;;;;;19.50;59.10;;;;;;5008443;28;20000;-51
2021/05/14 10:45:47;;;;;;;;;;;19.60;58.90;;;;;;5009612;28;19921;-53
2021/05/14 10:48:19;;;;;;;;;;;19.60;58.70;;;;;;4999749;28;20012;-52
2021/05/14 10:50:44;;;;;;;;;;;19.60;58.60;;;;;;4982973;28;20796;-52
2021/05/14 10:53:16;;;;;;;;;;;19.60;58.50;;;;;;5008689;28;19953;-52
2021/05/14 10:55:42;;;;;;;;;;;19.60;58.60;;;;;;5007557;28;20002;-55
2021/05/14 10:58:07;;;;;;;;;;;19.60;58.50;;;;;;5008485;28;19949;-56
2021/05/14 11:00:39;;;;;;;;;;;19.60;58.30;;;;;;5001564;28;19917;-52
2021/05/14 11:03:10;;;;;;;;;;;19.60;58.20;;;;;;5010208;28;19964;-55
2021/05/14 11:05:38;;;;;;;;;;;19.60;58.20;;;;;;5012229;28;19921;-53
2021/05/14 11:08:04;;;;;;;;;;;19.60;58.10;;;;;;5003131;28;20539;-55
2021/05/14 11:10:34;;;;;;;;;;;19.60;58.00;;;;;;5001261;28;19918;-53
2021/05/14 11:12:59;;;;;;;;;;;19.60;58.30;;;;;;5002132;28;19925;-56
2021/05/14 11:15:27;;;;;;;;;;;19.50;58.50;;;;;;4983675;28;19922;-54
2021/05/14 11:18:05;;;;;;;;;;;19.50;58.60;;;;;;5006821;28;19921;-53
2021/05/14 11:20:43;;;;;;;;;;;19.50;58.60;;;;;;4999887;28;19968;-55
2021/05/14 11:23:27;;;;;;;;;;;19.40;58.60;;;;;;5006573;28;19921;-54
2021/05/14 11:25:53;;;;;;;;;;;19.40;58.70;;;;;;5008503;28;19925;-54
2021/05/14 11:28:18;;;;;;;;;;;19.40;58.60;;;;;;5000443;28;19923;-55
2021/05/14 11:30:53;;;;;;;;;;;19.40;58.30;;;;;;5003240;28;19921;-51
2021/05/14 11:33:25;;;;;;;;;;;19.40;58.20;;;;;;5007791;28;20016;-54
2021/05/14 11:35:50;;;;;;;;;;;19.40;58.00;;;;;;5004060;28;20350;-53
2021/05/14 11:38:15;;;;;;;;;;;19.50;57.90;;;;;;5004243;28;19921;-60
2021/05/14 11:40:43;;;;;;;;;;;19.50;57.90;;;;;;5004108;28;20325;-53
2021/05/14 11:43:12;;;;;;;;;;;19.50;57.80;;;;;;4987583;28;20012;-55
2021/05/14 11:45:38;;;;;;;;;;;19.50;57.80;;;;;;4990318;28;19933;-53
2021/05/14 11:48:10;;;;;;;;;;;19.50;58.40;;;;;;5009930;28;19925;-51
2021/05/14 11:50:39;;;;;;;;;;;19.50;59.40;;;;;;4997543;28;20053;-56
2021/05/14 11:53:06;;;;;;;;;;;19.50;59.50;;;;;;5007984;28;19925;-58
2021/05/14 11:55:32;;;;;;;;;;;19.50;59.50;;;;;;5003269;28;19919;-55
2021/05/14 11:57:57;;;;;;;;;;;19.50;59.60;;;;;;4999268;28;19968;-62
2021/05/14 12:00:39;;;;;;;;;;;19.50;59.60;;;;;;4998648;28;19917;-56
2021/05/14 12:03:06;;;;;;;;;;;19.50;59.70;;;;;;5005776;28;20278;-53
2021/05/14 12:05:31;;;;;;;;;;;19.60;60.00;;;;;;4986497;28;19952;-59
2021/05/14 12:08:32;;;;;;;;;;;19.50;60.50;;;;;;5002250;28;20262;-49
2021/05/14 12:11:00;;;;;;;;;;;19.50;60.60;;;;;;4924875;29;19953;-58
2021/05/14 12:13:25;;;;;;;;;;;19.50;60.60;;;;;;4973439;28;19928;-58
2021/05/14 12:16:04;;;;;;;;;;;19.50;60.60;;;;;;5004493;28;20338;-54
2021/05/14 12:18:30;;;;;;;;;;;19.40;60.60;;;;;;5015150;28;20560;-49
2021/05/14 12:20:56;;;;;;;;;;;19.50;60.40;;;;;;4999580;28;19926;-51
2021/05/14 12:23:22;;;;;;;;;;;19.50;60.20;;;;;;4998677;28;19921;-51
2021/05/14 12:25:49;;;;;;;;;;;19.50;59.90;;;;;;5010348;28;19921;-50
2021/05/14 12:28:26;;;;;;;;;;;19.50;59.90;;;;;;5011941;28;20279;-53
2021/05/14 12:30:51;;;;;;;;;;;19.50;59.90;;;;;;5013302;28;19986;-53
2021/05/14 12:33:17;;;;;;;;;;;19.50;59.90;;;;;;5015986;28;19922;-62
2021/05/14 12:35:53;;;;;;;;;;;19.50;59.90;;;;;;5008924;28;19945;-53
2021/05/14 12:38:19;;;;;;;;;;;19.60;59.90;;;;;;5013551;28;19921;-53
2021/05/14 12:40:46;;;;;;;;;;;19.60;59.90;;;;;;5010134;28;19918;-50
2021/05/14 12:43:11;;;;;;;;;;;19.60;59.90;;;;;;5009933;28;19968;-55
2021/05/14 12:45:37;;;;;;;;;;;19.60;59.80;;;;;;5018966;28;19929;-53
2021/05/14 12:48:03;;;;;;;;;;;19.60;59.80;;;;;;5012797;28;19936;-51
2021/05/14 12:50:29;;;;;;;;;;;19.60;59.70;;;;;;5015831;28;19918;-54
2021/05/14 12:52:54;;;;;;;;;;;19.60;59.70;;;;;;5016803;28;19921;-50
2021/05/14 12:55:20;;;;;;;;;;;19.60;59.50;;;;;;5011899;28;19933;-55
2021/05/14 12:57:56;;;;;;;;;;;19.60;59.50;;;;;;4996112;28;20321;-57
2021/05/14 13:00:28;;;;;;;;;;;19.60;59.50;;;;;;5010506;28;19921;-54
2021/05/14 13:02:57;;;;;;;;;;;19.70;59.40;;;;;;5015142;28;19917;-55
2021/05/14 13:05:35;;;;;;;;;;;19.70;59.30;;;;;;5013656;28;19929;-50
2021/05/14 13:08:01;;;;;;;;;;;19.70;59.30;;;;;;4999851;28;20498;-54
2021/05/14 13:10:39;;;;;;;;;;;19.60;59.30;;;;;;5009679;28;19993;-51
2021/05/14 13:13:04;;;;;;;;;;;19.70;59.40;;;;;;5013055;28;19918;-54
2021/05/14 13:15:30;;;;;;;;;;;19.70;59.30;;;;;;4989725;28;19928;-51
2021/05/14 13:17:55;;;;;;;;;;;19.70;59.30;;;;;;5016051;28;19917;-55
2021/05/14 13:20:20;;;;;;;;;;;19.70;59.30;;;;;;5007616;28;20399;-53
2021/05/14 13:22:46;;;;;;;;;;;19.70;59.40;;;;;;5004784;28;19918;-53
2021/05/14 13:25:11;;;;;;;;;;;19.70;59.50;;;;;;4999824;28;19948;-55
2021/05/14 13:27:39;;;;;;;;;;;19.70;59.50;;;;;;5001479;28;19936;-51
2021/05/14 13:30:06;;;;;;;;;;;19.70;60.00;;;;;;4997008;28;20080;-55
2021/05/14 13:32:31;;;;;;;;;;;19.70;60.90;;;;;;5007800;28;19924;-53
2021/05/14 13:34:57;;;;;;;;;;;19.70;60.30;;;;;;5015579;23;20308;-66
2021/05/14 13:37:22;;;;;;;;;;;19.70;60.20;;;;;;5005541;28;19925;-66
2021/05/14 13:39:48;;;;;;;;;;;19.70;60.00;;;;;;5009058;28;19918;-66
2021/05/14 13:42:13;;;;;;;;;;;19.70;60.00;;;;;;5003495;28;19975;-66
2021/05/14 13:44:39;;;;;;;;;;;19.70;59.90;;;;;;5004820;28;19925;-66
2021/05/14 13:47:04;;;;;;;;;;;19.70;59.80;;;;;;5004370;28;19925;-66
2021/05/14 13:49:30;;;;;;;;;;;19.70;59.80;;;;;;5000454;28;19913;-66
2021/05/14 13:51:55;;;;;;;;;;;19.70;59.80;;;;;;5000433;28;19936;-65
2021/05/14 13:54:20;;;;;;;;;;;19.70;59.80;;;;;;5004654;28;19948;-65
2021/05/14 13:56:46;;;;;;;;;;;19.70;59.70;;;;;;4999741;28;19918;-66
2021/05/14 13:59:11;;;;;;;;;;;19.70;60.50;;;;;;5004160;28;19918;-65
2021/05/14 14:01:37;;;;;;;;;;;19.70;59.80;;;;;;5005218;28;19948;-65
2021/05/14 14:04:02;;;;;;;;;;;19.70;59.80;;;;;;5005260;28;19914;-66
2021/05/14 14:06:28;;;;;;;;;;;19.70;59.80;;;;;;5005664;28;20011;-66
2021/05/14 14:08:53;;;;;;;;;;;19.70;59.80;;;;;;5004233;28;20326;-66
2021/05/14 14:11:19;;;;;;;;;;;19.70;59.90;;;;;;5004294;28;19925;-66
2021/05/14 14:13:44;;;;;;;;;;;19.70;59.90;;;;;;5004711;28;20395;-65
2021/05/14 14:16:10;;;;;;;;;;;19.70;60.10;;;;;;5004726;28;19917;-66